sensor_id;sensor_type;location;lat;lon;timestamp;pressure;altitude;pressure_sealevel;temperature;humidity
34506;BME280;20748;42.632;23.198;2023-04-03T00:01:33;91408.41;;;4.83;87.08
34506;BME280;20748;42.632;23.198;2023-04-03T00:04:09;91405.03;;;4.88;86.93
34506;BME280;20748;42.632;23.198;2023-04-03T00:06:41;91408.41;;;4.83;87.37
34506;BME280;20748;42.632;23.198;2023-04-03T00:09:14;91405.88;;;4.78;87.34
34506;BME280;20748;42.632;23.198;2023-04-03T00:11:46;91405.34;;;4.81;87.64
34506;BME280;20748;42.632;23.198;2023-04-03T00:14:19;91405.13;;;4.77;88.20
34506;BME280;20748;42.632;23.198;2023-04-03T00:16:51;91404.84;;;4.79;87.58
34506;BME280;20748;42.632;23.198;2023-04-03T00:19:23;91402.81;;;4.76;88.20
34506;BME280;20748;42.632;23.198;2023-04-03T00:21:56;91399.06;;;4.63;88.38
34506;BME280;20748;42.632;23.198;2023-04-03T00:24:29;91398.81;;;4.64;88.82
34506;BME280;20748;42.632;23.198;2023-04-03T00:27:01;91400.75;;;4.53;89.32
34506;BME280;20748;42.632;23.198;2023-04-03T00:29:33;91403.53;;;4.57;90.00
34506;BME280;20748;42.632;23.198;2023-04-03T00:32:06;91402.53;;;4.53;90.37
34506;BME280;20748;42.632;23.198;2023-04-03T00:34:38;91400.75;;;4.53;90.49
34506;BME280;20748;42.632;23.198;2023-04-03T00:37:11;91403.84;;;4.50;90.20
34506;BME280;20748;42.632;23.198;2023-04-03T00:39:43;91401.06;;;4.47;91.20
34506;BME280;20748;42.632;23.198;2023-04-03T00:42:16;91379.69;;;4.41;90.38
34506;BME280;20748;42.632;23.198;2023-04-03T00:48:04;91377.41;;;4.34;89.97
34506;BME280;20748;42.632;23.198;2023-04-03T00:50:40;91407.81;;;4.42;90.49
34506;BME280;20748;42.632;23.198;2023-04-03T00:53:16;91403.78;;;4.31;90.65
34506;BME280;20748;42.632;23.198;2023-04-03T00:55:50;91404.34;;;4.28;90.74
34506;BME280;20748;42.632;23.198;2023-04-03T00:58:28;91406.19;;;4.22;91.48
34506;BME280;20748;42.632;23.198;2023-04-03T01:01:08;91407.53;;;4.20;93.22
34506;BME280;20748;42.632;23.198;2023-04-03T01:03:42;91399.22;;;4.23;92.22
34506;BME280;20748;42.632;23.198;2023-04-03T01:06:17;91409.59;;;4.18;91.96
34506;BME280;20748;42.632;23.198;2023-04-03T01:08:53;91409.06;;;4.21;92.18
34506;BME280;20748;42.632;23.198;2023-04-03T01:11:27;91403.91;;;4.21;91.91
34506;BME280;20748;42.632;23.198;2023-04-03T01:13:59;91402.06;;;4.21;92.30
34506;BME280;20748;42.632;23.198;2023-04-03T01:16:33;91409.97;;;4.06;93.03
34506;BME280;20748;42.632;23.198;2023-04-03T01:19:10;91401.81;;;3.93;93.53
34506;BME280;20748;42.632;23.198;2023-04-03T01:21:58;91384.59;;;3.83;93.65
34506;BME280;20748;42.632;23.198;2023-04-03T01:24:36;91387.31;;;3.97;93.86
34506;BME280;20748;42.632;23.198;2023-04-03T01:27:12;91397.88;;;4.01;93.71
34506;BME280;20748;42.632;23.198;2023-04-03T01:29:45;91394.75;;;4.04;94.25
34506;BME280;20748;42.632;23.198;2023-04-03T01:32:18;91400.13;;;4.08;93.45
34506;BME280;20748;42.632;23.198;2023-04-03T01:34:51;91396.78;;;4.07;93.74
34506;BME280;20748;42.632;23.198;2023-04-03T01:37:23;91399.66;;;4.06;93.17
34506;BME280;20748;42.632;23.198;2023-04-03T01:39:55;91400.91;;;4.08;94.28
34506;BME280;20748;42.632;23.198;2023-04-03T01:42:28;91392.69;;;4.01;93.21
34506;BME280;20748;42.632;23.198;2023-04-03T01:45:01;91393.22;;;4.03;93.58
34506;BME280;20748;42.632;23.198;2023-04-03T01:47:34;91387.00;;;4.04;93.20
34506;BME280;20748;42.632;23.198;2023-04-03T01:50:07;91402.22;;;4.06;92.67
34506;BME280;20748;42.632;23.198;2023-04-03T01:52:39;91395.78;;;4.03;93.16
34506;BME280;20748;42.632;23.198;2023-04-03T01:55:12;91394.31;;;3.97;92.94
34506;BME280;20748;42.632;23.198;2023-04-03T01:57:44;91389.66;;;3.94;93.20
34506;BME280;20748;42.632;23.198;2023-04-03T02:00:17;91395.06;;;3.97;93.68
34506;BME280;20748;42.632;23.198;2023-04-03T02:02:50;91393.28;;;3.93;92.33
34506;BME280;20748;42.632;23.198;2023-04-03T02:05:22;91392.06;;;3.85;93.41
34506;BME280;20748;42.632;23.198;2023-04-03T02:07:55;91388.44;;;3.86;94.25
34506;BME280;20748;42.632;23.198;2023-04-03T02:10:28;91386.72;;;3.76;94.63
34506;BME280;20748;42.632;23.198;2023-04-03T02:13:01;91390.31;;;3.80;95.75
34506;BME280;20748;42.632;23.198;2023-04-03T02:15:34;91383.13;;;3.72;96.04
34506;BME280;20748;42.632;23.198;2023-04-03T02:18:07;91391.66;;;3.72;94.82
34506;BME280;20748;42.632;23.198;2023-04-03T02:20:39;91389.59;;;3.69;94.35
34506;BME280;20748;42.632;23.198;2023-04-03T02:23:12;91388.34;;;3.67;95.06
34506;BME280;20748;42.632;23.198;2023-04-03T02:25:44;91367.06;;;3.45;96.42
34506;BME280;20748;42.632;23.198;2023-04-03T02:28:16;91374.00;;;3.55;96.97
34506;BME280;20748;42.632;23.198;2023-04-03T02:30:49;91373.47;;;3.53;97.56
34506;BME280;20748;42.632;23.198;2023-04-03T02:33:22;91371.19;;;3.52;96.95
34506;BME280;20748;42.632;23.198;2023-04-03T02:35:56;91365.50;;;3.49;96.78
34506;BME280;20748;42.632;23.198;2023-04-03T02:38:28;91371.25;;;3.41;97.25
34506;BME280;20748;42.632;23.198;2023-04-03T02:41:02;91367.88;;;3.41;97.04
34506;BME280;20748;42.632;23.198;2023-04-03T02:43:36;91368.94;;;3.40;97.02
34506;BME280;20748;42.632;23.198;2023-04-03T02:46:10;91368.94;;;3.40;96.82
34506;BME280;20748;42.632;23.198;2023-04-03T02:48:43;91360.75;;;3.27;96.47
34506;BME280;20748;42.632;23.198;2023-04-03T02:51:15;91362.59;;;3.21;97.54
34506;BME280;20748;42.632;23.198;2023-04-03T02:53:47;91351.50;;;3.26;98.20
34506;BME280;20748;42.632;23.198;2023-04-03T02:56:24;91353.78;;;3.28;99.05
34506;BME280;20748;42.632;23.198;2023-04-03T02:58:56;91344.34;;;3.13;100.00
34506;BME280;20748;42.632;23.198;2023-04-03T03:01:29;91353.03;;;3.27;100.00
34506;BME280;20748;42.632;23.198;2023-04-03T03:04:03;91347.13;;;3.21;100.00
34506;BME280;20748;42.632;23.198;2023-04-03T03:06:36;91349.47;;;3.18;100.00
34506;BME280;20748;42.632;23.198;2023-04-03T03:09:08;91342.97;;;3.26;100.00
34506;BME280;20748;42.632;23.198;2023-04-03T03:14:23;91339.06;;;3.33;100.00
34506;BME280;20748;42.632;23.198;2023-04-03T03:16:56;91332.66;;;3.26;100.00
34506;BME280;20748;42.632;23.198;2023-04-03T03:19:29;91336.00;;;3.31;100.00
34506;BME280;20748;42.632;23.198;2023-04-03T03:22:01;91335.13;;;3.41;100.00
34506;BME280;20748;42.632;23.198;2023-04-03T03:24:34;91330.75;;;3.42;100.00
34506;BME280;20748;42.632;23.198;2023-04-03T03:27:06;91328.84;;;3.18;100.00
34506;BME280;20748;42.632;23.198;2023-04-03T03:29:38;91333.13;;;3.33;100.00
34506;BME280;20748;42.632;23.198;2023-04-03T03:32:11;91335.34;;;3.10;100.00
34506;BME280;20748;42.632;23.198;2023-04-03T03:34:44;91337.34;;;3.18;100.00
34506;BME280;20748;42.632;23.198;2023-04-03T03:37:16;91338.88;;;3.25;100.00
34506;BME280;20748;42.632;23.198;2023-04-03T03:39:49;91338.38;;;3.22;100.00
34506;BME280;20748;42.632;23.198;2023-04-03T03:42:21;91332.22;;;3.13;100.00
34506;BME280;20748;42.632;23.198;2023-04-03T03:44:54;91325.81;;;3.11;100.00
34506;BME280;20748;42.632;23.198;2023-04-03T03:47:27;91326.56;;;3.16;100.00
34506;BME280;20748;42.632;23.198;2023-04-03T03:50:00;91328.81;;;3.23;100.00
34506;BME280;20748;42.632;23.198;2023-04-03T03:52:33;91336.06;;;3.21;100.00
34506;BME280;20748;42.632;23.198;2023-04-03T03:55:06;91333.22;;;3.22;100.00
34506;BME280;20748;42.632;23.198;2023-04-03T03:57:41;91328.13;;;3.12;100.00
34506;BME280;20748;42.632;23.198;2023-04-03T04:00:15;91320.41;;;3.07;100.00
34506;BME280;20748;42.632;23.198;2023-04-03T04:02:52;91329.34;;;3.25;100.00
34506;BME280;20748;42.632;23.198;2023-04-03T04:05:27;91322.53;;;3.34;100.00
34506;BME280;20748;42.632;23.198;2023-04-03T04:08:00;91323.19;;;3.51;100.00
34506;BME280;20748;42.632;23.198;2023-04-03T04:10:33;91320.84;;;3.54;100.00
34506;BME280;20748;42.632;23.198;2023-04-03T04:13:05;91330.00;;;3.71;100.00
34506;BME280;20748;42.632;23.198;2023-04-03T04:15:38;91337.38;;;3.83;100.00
34506;BME280;20748;42.632;23.198;2023-04-03T04:18:11;91339.06;;;3.98;100.00
34506;BME280;20748;42.632;23.198;2023-04-03T04:20:46;91341.81;;;4.07;100.00
34506;BME280;20748;42.632;23.198;2023-04-03T04:23:20;91344.34;;;4.12;100.00
34506;BME280;20748;42.632;23.198;2023-04-03T04:25:54;91338.88;;;4.13;100.00
34506;BME280;20748;42.632;23.198;2023-04-03T04:28:27;91334.13;;;4.26;100.00
34506;BME280;20748;42.632;23.198;2023-04-03T04:31:01;91340.72;;;4.37;100.00
34506;BME280;20748;42.632;23.198;2023-04-03T04:33:34;91342.69;;;4.46;100.00
34506;BME280;20748;42.632;23.198;2023-04-03T04:36:10;91351.88;;;4.57;100.00
34506;BME280;20748;42.632;23.198;2023-04-03T04:38:43;91356.63;;;4.69;100.00
34506;BME280;20748;42.632;23.198;2023-04-03T04:41:15;91350.06;;;4.77;100.00
34506;BME280;20748;42.632;23.198;2023-04-03T04:43:49;91350.66;;;4.74;100.00
34506;BME280;20748;42.632;23.198;2023-04-03T04:46:22;91354.69;;;4.80;100.00
34506;BME280;20748;42.632;23.198;2023-04-03T04:48:59;91359.31;;;4.83;100.00
34506;BME280;20748;42.632;23.198;2023-04-03T04:51:35;91363.09;;;4.91;100.00
34506;BME280;20748;42.632;23.198;2023-04-03T04:54:25;91362.69;;;5.03;100.00
34506;BME280;20748;42.632;23.198;2023-04-03T04:56:57;91374.78;;;5.07;100.00
34506;BME280;20748;42.632;23.198;2023-04-03T04:59:31;91373.44;;;5.10;100.00
34506;BME280;20748;42.632;23.198;2023-04-03T05:02:04;91376.78;;;5.10;100.00
34506;BME280;20748;42.632;23.198;2023-04-03T05:04:36;91371.06;;;5.14;100.00
34506;BME280;20748;42.632;23.198;2023-04-03T05:07:15;91377.38;;;5.27;100.00
34506;BME280;20748;42.632;23.198;2023-04-03T05:09:47;91379.66;;;5.28;100.00
34506;BME280;20748;42.632;23.198;2023-04-03T05:12:21;91387.50;;;5.42;100.00
34506;BME280;20748;42.632;23.198;2023-04-03T05:15:00;91383.97;;;5.52;100.00
34506;BME280;20748;42.632;23.198;2023-04-03T05:17:34;91395.31;;;5.56;100.00
34506;BME280;20748;42.632;23.198;2023-04-03T05:20:08;91389.66;;;5.54;100.00
34506;BME280;20748;42.632;23.198;2023-04-03T05:22:42;91388.75;;;5.64;100.00
34506;BME280;20748;42.632;23.198;2023-04-03T05:25:15;91395.38;;;5.70;100.00
34506;BME280;20748;42.632;23.198;2023-04-03T05:27:49;91394.72;;;5.78;100.00
34506;BME280;20748;42.632;23.198;2023-04-03T05:30:22;91390.72;;;5.86;100.00
34506;BME280;20748;42.632;23.198;2023-04-03T05:32:54;91385.41;;;5.97;100.00
34506;BME280;20748;42.632;23.198;2023-04-03T05:35:37;91380.63;;;6.04;100.00
34506;BME280;20748;42.632;23.198;2023-04-03T05:38:12;91382.41;;;6.09;100.00
34506;BME280;20748;42.632;23.198;2023-04-03T05:40:44;91382.47;;;6.03;99.41
34506;BME280;20748;42.632;23.198;2023-04-03T05:43:17;91373.84;;;6.08;98.97
34506;BME280;20748;42.632;23.198;2023-04-03T05:45:50;91374.41;;;6.05;97.59
34506;BME280;20748;42.632;23.198;2023-04-03T05:48:24;91371.53;;;6.07;97.75
34506;BME280;20748;42.632;23.198;2023-04-03T05:50:58;91374.69;;;6.03;97.94
34506;BME280;20748;42.632;23.198;2023-04-03T05:53:35;91360.91;;;6.08;97.55
34506;BME280;20748;42.632;23.198;2023-04-03T05:56:10;91370.59;;;6.16;97.79
34506;BME280;20748;42.632;23.198;2023-04-03T05:58:44;91366.38;;;6.21;97.00
34506;BME280;20748;42.632;23.198;2023-04-03T06:01:17;91367.53;;;6.28;96.02
34506;BME280;20748;42.632;23.198;2023-04-03T06:03:50;91364.88;;;6.34;95.58
34506;BME280;20748;42.632;23.198;2023-04-03T06:06:23;91357.09;;;6.34;95.61
34506;BME280;20748;42.632;23.198;2023-04-03T06:08:56;91354.97;;;6.36;96.13
34506;BME280;20748;42.632;23.198;2023-04-03T06:11:28;91344.81;;;6.39;97.10
34506;BME280;20748;42.632;23.198;2023-04-03T06:14:01;91338.38;;;6.37;96.66
34506;BME280;20748;42.632;23.198;2023-04-03T06:16:34;91342.78;;;6.36;96.85
34506;BME280;20748;42.632;23.198;2023-04-03T06:19:12;91334.72;;;6.38;97.46
34506;BME280;20748;42.632;23.198;2023-04-03T06:21:50;91351.22;;;6.42;97.83
34506;BME280;20748;42.632;23.198;2023-04-03T06:24:23;91353.81;;;6.56;97.90
34506;BME280;20748;42.632;23.198;2023-04-03T06:26:57;91342.81;;;6.50;96.77
34506;BME280;20748;42.632;23.198;2023-04-03T06:29:30;91341.84;;;6.46;96.99
34506;BME280;20748;42.632;23.198;2023-04-03T06:32:02;91345.41;;;6.50;95.80
34506;BME280;20748;42.632;23.198;2023-04-03T06:34:35;91343.09;;;6.49;96.16
34506;BME280;20748;42.632;23.198;2023-04-03T06:37:10;91351.53;;;6.54;94.98
34506;BME280;20748;42.632;23.198;2023-04-03T06:39:43;91357.66;;;6.58;94.97
34506;BME280;20748;42.632;23.198;2023-04-03T06:42:16;91349.97;;;6.67;94.72
34506;BME280;20748;42.632;23.198;2023-04-03T06:44:58;91345.78;;;6.71;93.57
34506;BME280;20748;42.632;23.198;2023-04-03T06:47:32;91354.19;;;6.77;93.62
34506;BME280;20748;42.632;23.198;2023-04-03T06:50:05;91354.56;;;6.84;92.52
34506;BME280;20748;42.632;23.198;2023-04-03T06:52:38;91358.91;;;6.89;91.64
34506;BME280;20748;42.632;23.198;2023-04-03T06:55:12;91362.94;;;6.95;92.37
34506;BME280;20748;42.632;23.198;2023-04-03T06:57:44;91353.31;;;6.96;91.84
34506;BME280;20748;42.632;23.198;2023-04-03T07:00:18;91366.00;;;6.97;91.48
34506;BME280;20748;42.632;23.198;2023-04-03T07:02:50;91370.38;;;7.11;91.48
34506;BME280;20748;42.632;23.198;2023-04-03T07:05:23;91364.06;;;7.03;89.23
34506;BME280;20748;42.632;23.198;2023-04-03T07:07:56;91367.31;;;7.09;91.17
34506;BME280;20748;42.632;23.198;2023-04-03T07:10:29;91370.69;;;7.09;90.62
34506;BME280;20748;42.632;23.198;2023-04-03T07:13:02;91364.03;;;7.17;89.51
34506;BME280;20748;42.632;23.198;2023-04-03T07:15:35;91368.81;;;7.24;89.92
34506;BME280;20748;42.632;23.198;2023-04-03T07:18:09;91373.63;;;7.31;90.31
34506;BME280;20748;42.632;23.198;2023-04-03T07:20:42;91367.09;;;7.33;90.01
34506;BME280;20748;42.632;23.198;2023-04-03T07:23:14;91378.56;;;7.41;89.20
34506;BME280;20748;42.632;23.198;2023-04-03T07:25:49;91362.31;;;7.49;89.60
34506;BME280;20748;42.632;23.198;2023-04-03T07:28:22;91359.84;;;7.44;88.76
34506;BME280;20748;42.632;23.198;2023-04-03T07:31:03;91358.38;;;7.52;87.76
34506;BME280;20748;42.632;23.198;2023-04-03T07:33:37;91345.69;;;7.50;87.79
34506;BME280;20748;42.632;23.198;2023-04-03T07:36:14;91357.47;;;7.79;86.57
34506;BME280;20748;42.632;23.198;2023-04-03T07:38:47;91347.88;;;7.80;86.43
34506;BME280;20748;42.632;23.198;2023-04-03T07:41:20;91349.00;;;7.97;85.49
34506;BME280;20748;42.632;23.198;2023-04-03T07:43:54;91338.09;;;8.09;85.13
34506;BME280;20748;42.632;23.198;2023-04-03T07:46:28;91335.63;;;8.03;83.69
34506;BME280;20748;42.632;23.198;2023-04-03T07:49:01;91337.19;;;8.13;84.23
34506;BME280;20748;42.632;23.198;2023-04-03T07:51:33;91332.50;;;8.24;82.95
34506;BME280;20748;42.632;23.198;2023-04-03T07:54:06;91333.97;;;8.48;81.45
34506;BME280;20748;42.632;23.198;2023-04-03T07:56:39;91330.59;;;8.48;81.14
34506;BME280;20748;42.632;23.198;2023-04-03T07:59:11;91317.97;;;8.55;81.73
34506;BME280;20748;42.632;23.198;2023-04-03T08:01:44;91323.78;;;8.52;80.96
34506;BME280;20748;42.632;23.198;2023-04-03T08:04:16;91312.75;;;8.55;79.77
34506;BME280;20748;42.632;23.198;2023-04-03T08:06:48;91322.56;;;8.58;80.02
34506;BME280;20748;42.632;23.198;2023-04-03T08:09:21;91320.78;;;8.44;80.39
34506;BME280;20748;42.632;23.198;2023-04-03T08:11:54;91313.00;;;8.44;80.92
34506;BME280;20748;42.632;23.198;2023-04-03T08:14:26;91320.97;;;8.39;81.12
34506;BME280;20748;42.632;23.198;2023-04-03T08:16:59;91320.78;;;8.44;81.12
34506;BME280;20748;42.632;23.198;2023-04-03T08:19:32;91321.44;;;8.50;81.67
34506;BME280;20748;42.632;23.198;2023-04-03T08:22:04;91320.28;;;8.65;80.70
34506;BME280;20748;42.632;23.198;2023-04-03T08:24:37;91323.34;;;8.67;79.87
34506;BME280;20748;42.632;23.198;2023-04-03T08:27:15;91320.88;;;8.62;80.12
34506;BME280;20748;42.632;23.198;2023-04-03T08:29:48;91321.19;;;8.52;80.57
34506;BME280;20748;42.632;23.198;2023-04-03T08:32:20;91321.78;;;8.57;80.06
34506;BME280;20748;42.632;23.198;2023-04-03T08:34:52;91311.22;;;8.54;79.02
34506;BME280;20748;42.632;23.198;2023-04-03T08:37:25;91308.94;;;8.52;79.12
34506;BME280;20748;42.632;23.198;2023-04-03T08:39:58;91311.38;;;8.57;79.84
34506;BME280;20748;42.632;23.198;2023-04-03T08:42:40;91310.63;;;8.57;79.89
34506;BME280;20748;42.632;23.198;2023-04-03T08:45:18;91305.44;;;8.57;79.67
34506;BME280;20748;42.632;23.198;2023-04-03T08:47:59;91307.16;;;8.70;79.38
34506;BME280;20748;42.632;23.198;2023-04-03T08:50:37;91302.53;;;8.67;78.78
34506;BME280;20748;42.632;23.198;2023-04-03T08:53:15;91309.28;;;8.68;79.93
34506;BME280;20748;42.632;23.198;2023-04-03T08:55:49;91300.72;;;8.68;79.20
34506;BME280;20748;42.632;23.198;2023-04-03T08:58:24;91298.53;;;8.61;80.31
34506;BME280;20748;42.632;23.198;2023-04-03T09:01:00;91284.63;;;8.57;80.15
34506;BME280;20748;42.632;23.198;2023-04-03T09:03:36;91288.63;;;8.63;79.43
34506;BME280;20748;42.632;23.198;2023-04-03T09:06:13;91287.19;;;8.48;78.71
34506;BME280;20748;42.632;23.198;2023-04-03T09:08:50;91275.72;;;8.49;79.50
34506;BME280;20748;42.632;23.198;2023-04-03T09:11:25;91271.31;;;8.58;78.23
34506;BME280;20748;42.632;23.198;2023-04-03T09:14:02;91260.63;;;8.60;78.91
34506;BME280;20748;42.632;23.198;2023-04-03T09:16:54;91254.34;;;8.61;77.89
34506;BME280;20748;42.632;23.198;2023-04-03T09:19:36;91252.84;;;8.69;76.87
34506;BME280;20748;42.632;23.198;2023-04-03T09:22:16;91247.50;;;8.74;74.80
34506;BME280;20748;42.632;23.198;2023-04-03T09:24:55;91239.53;;;8.79;74.84
34506;BME280;20748;42.632;23.198;2023-04-03T09:27:29;91241.06;;;8.80;77.26
34506;BME280;20748;42.632;23.198;2023-04-03T09:30:04;91242.59;;;8.90;75.21
34506;BME280;20748;42.632;23.198;2023-04-03T09:32:38;91231.59;;;9.02;74.42
34506;BME280;20748;42.632;23.198;2023-04-03T09:35:18;91218.88;;;9.27;74.39
34506;BME280;20748;42.632;23.198;2023-04-03T09:38:13;91219.63;;;9.27;73.35
34506;BME280;20748;42.632;23.198;2023-04-03T09:40:48;91222.06;;;9.15;72.53
34506;BME280;20748;42.632;23.198;2023-04-03T09:43:28;91199.56;;;9.19;70.38
34506;BME280;20748;42.632;23.198;2023-04-03T09:46:28;91215.00;;;9.42;70.08
34506;BME280;20748;42.632;23.198;2023-04-03T09:49:03;91220.19;;;9.60;70.16
34506;BME280;20748;42.632;23.198;2023-04-03T09:51:40;91206.06;;;9.70;72.14
34506;BME280;20748;42.632;23.198;2023-04-03T09:54:26;91203.75;;;9.68;69.44
34506;BME280;20748;42.632;23.198;2023-04-03T09:57:07;91207.84;;;9.78;70.48
34506;BME280;20748;42.632;23.198;2023-04-03T09:59:46;91204.78;;;9.85;67.56
34506;BME280;20748;42.632;23.198;2023-04-03T10:02:22;91208.91;;;9.86;68.66
34506;BME280;20748;42.632;23.198;2023-04-03T10:04:55;91200.03;;;9.78;67.71
34506;BME280;20748;42.632;23.198;2023-04-03T10:07:41;91200.50;;;9.80;67.90
34506;BME280;20748;42.632;23.198;2023-04-03T10:10:25;91196.69;;;9.77;65.86
34506;BME280;20748;42.632;23.198;2023-04-03T10:13:04;91191.00;;;9.84;66.16
34506;BME280;20748;42.632;23.198;2023-04-03T10:15:42;91184.41;;;9.78;64.77
34506;BME280;20748;42.632;23.198;2023-04-03T10:18:32;91191.72;;;9.93;65.19
34506;BME280;20748;42.632;23.198;2023-04-03T10:21:09;91190.31;;;9.96;64.67
34506;BME280;20748;42.632;23.198;2023-04-03T10:24:06;91187.09;;;9.99;64.41
34506;BME280;20748;42.632;23.198;2023-04-03T10:26:46;91189.56;;;9.96;64.85
34506;BME280;20748;42.632;23.198;2023-04-03T10:29:31;91177.69;;;10.07;64.88
34506;BME280;20748;42.632;23.198;2023-04-03T10:32:40;91178.88;;;10.18;64.60
34506;BME280;20748;42.632;23.198;2023-04-03T10:35:25;91169.13;;;10.06;64.42
34506;BME280;20748;42.632;23.198;2023-04-03T10:38:05;91169.75;;;10.03;64.73
34506;BME280;20748;42.632;23.198;2023-04-03T10:40:47;91174.13;;;9.90;65.30
34506;BME280;20748;42.632;23.198;2023-04-03T10:43:29;91161.63;;;10.05;65.43
34506;BME280;20748;42.632;23.198;2023-04-03T10:46:09;91149.19;;;10.11;65.37
34506;BME280;20748;42.632;23.198;2023-04-03T10:49:01;91168.38;;;10.27;64.92
34506;BME280;20748;42.632;23.198;2023-04-03T10:51:41;91159.78;;;10.36;64.67
34506;BME280;20748;42.632;23.198;2023-04-03T10:54:20;91162.25;;;10.32;64.92
34506;BME280;20748;42.632;23.198;2023-04-03T10:56:57;91158.72;;;10.06;67.69
34506;BME280;20748;42.632;23.198;2023-04-03T10:59:45;91167.88;;;10.13;69.78
34506;BME280;20748;42.632;23.198;2023-04-03T11:02:23;91162.44;;;10.27;69.74
34506;BME280;20748;42.632;23.198;2023-04-03T11:05:00;91169.69;;;10.42;70.19
34506;BME280;20748;42.632;23.198;2023-04-03T11:07:38;91169.56;;;10.39;71.22
34506;BME280;20748;42.632;23.198;2023-04-03T11:10:15;91168.22;;;10.32;73.88
34506;BME280;20748;42.632;23.198;2023-04-03T11:12:52;91178.78;;;10.36;73.68
34506;BME280;20748;42.632;23.198;2023-04-03T11:15:30;91175.91;;;9.99;76.13
34506;BME280;20748;42.632;23.198;2023-04-03T11:18:09;91161.00;;;10.08;79.17
34506;BME280;20748;42.632;23.198;2023-04-03T11:20:49;91177.44;;;10.00;80.40
34506;BME280;20748;42.632;23.198;2023-04-03T11:23:26;91173.06;;;9.83;81.54
34506;BME280;20748;42.632;23.198;2023-04-03T11:26:12;91173.59;;;9.58;84.39
34506;BME280;20748;42.632;23.198;2023-04-03T11:28:46;91178.69;;;9.46;87.84
34506;BME280;20748;42.632;23.198;2023-04-03T11:31:37;91169.22;;;9.41;90.44
34506;BME280;20748;42.632;23.198;2023-04-03T11:34:24;91181.50;;;9.32;90.94
34506;BME280;20748;42.632;23.198;2023-04-03T11:37:10;91176.94;;;9.11;92.24
34506;BME280;20748;42.632;23.198;2023-04-03T11:39:53;91184.63;;;8.81;91.10
34506;BME280;20748;42.632;23.198;2023-04-03T11:42:32;91186.16;;;8.73;99.63
34506;BME280;20748;42.632;23.198;2023-04-03T11:45:34;91174.97;;;8.64;100.00
34506;BME280;20748;42.632;23.198;2023-04-03T11:58:38;91174.22;;;7.96;100.00
34506;BME280;20748;42.632;23.198;2023-04-03T12:01:50;91177.25;;;7.89;100.00
34506;BME280;20748;42.632;23.198;2023-04-03T12:08:27;91158.88;;;7.77;100.00
34506;BME280;20748;42.632;23.198;2023-04-03T12:11:30;91157.31;;;7.67;100.00
34506;BME280;20748;42.632;23.198;2023-04-03T12:14:31;91154.59;;;7.72;100.00
34506;BME280;20748;42.632;23.198;2023-04-03T12:17:29;91138.56;;;7.79;100.00
34506;BME280;20748;42.632;23.198;2023-04-03T12:20:59;91133.06;;;7.81;100.00
34506;BME280;20748;42.632;23.198;2023-04-03T12:24:03;91114.31;;;7.84;100.00
34506;BME280;20748;42.632;23.198;2023-04-03T12:27:13;91117.63;;;7.75;100.00
34506;BME280;20748;42.632;23.198;2023-04-03T12:30:34;91110.56;;;7.58;100.00
34506;BME280;20748;42.632;23.198;2023-04-03T12:33:42;91098.63;;;7.48;100.00
34506;BME280;20748;42.632;23.198;2023-04-03T12:36:59;91108.25;;;7.48;100.00
34506;BME280;20748;42.632;23.198;2023-04-03T12:39:54;91084.66;;;7.27;100.00
34506;BME280;20748;42.632;23.198;2023-04-03T12:43:09;91069.22;;;7.21;100.00
34506;BME280;20748;42.632;23.198;2023-04-03T12:46:04;91051.81;;;7.13;100.00
34506;BME280;20748;42.632;23.198;2023-04-03T12:48:55;91061.16;;;6.91;100.00
34506;BME280;20748;42.632;23.198;2023-04-03T12:51:45;91055.63;;;6.84;100.00
34506;BME280;20748;42.632;23.198;2023-04-03T12:54:32;91058.22;;;6.84;100.00
34506;BME280;20748;42.632;23.198;2023-04-03T12:57:20;91063.81;;;6.77;100.00
34506;BME280;20748;42.632;23.198;2023-04-03T13:00:31;91093.25;;;6.72;100.00
34506;BME280;20748;42.632;23.198;2023-04-03T13:03:29;91091.22;;;6.69;100.00
34506;BME280;20748;42.632;23.198;2023-04-03T13:06:17;91068.25;;;6.77;100.00
34506;BME280;20748;42.632;23.198;2023-04-03T13:09:14;91069.56;;;6.65;100.00
34506;BME280;20748;42.632;23.198;2023-04-03T13:12:09;91071.66;;;6.63;100.00
34506;BME280;20748;42.632;23.198;2023-04-03T13:14:59;91074.69;;;6.56;100.00
34506;BME280;20748;42.632;23.198;2023-04-03T13:17:40;91046.59;;;6.50;100.00
34506;BME280;20748;42.632;23.198;2023-04-03T13:20:40;91053.72;;;6.44;100.00
34506;BME280;20748;42.632;23.198;2023-04-03T13:23:27;91057.31;;;6.34;100.00
34506;BME280;20748;42.632;23.198;2023-04-03T13:26:08;91066.81;;;6.39;100.00
34506;BME280;20748;42.632;23.198;2023-04-03T13:28:51;91042.03;;;6.24;100.00
34506;BME280;20748;42.632;23.198;2023-04-03T13:31:28;91026.09;;;6.16;100.00
34506;BME280;20748;42.632;23.198;2023-04-03T13:34:05;91032.84;;;6.17;100.00
34506;BME280;20748;42.632;23.198;2023-04-03T13:36:40;91023.03;;;6.14;100.00
34506;BME280;20748;42.632;23.198;2023-04-03T13:39:22;91019.94;;;6.03;100.00
34506;BME280;20748;42.632;23.198;2023-04-03T13:41:57;91025.66;;;6.00;100.00
34506;BME280;20748;42.632;23.198;2023-04-03T13:44:34;91026.72;;;5.99;100.00
34506;BME280;20748;42.632;23.198;2023-04-03T13:47:17;91036.72;;;5.92;100.00
34506;BME280;20748;42.632;23.198;2023-04-03T13:50:02;91021.88;;;5.84;100.00
34506;BME280;20748;42.632;23.198;2023-04-03T13:52:41;91012.84;;;5.81;100.00
34506;BME280;20748;42.632;23.198;2023-04-03T13:55:21;91014.91;;;5.70;100.00
34506;BME280;20748;42.632;23.198;2023-04-03T13:58:00;91012.78;;;5.72;100.00
34506;BME280;20748;42.632;23.198;2023-04-03T14:00:37;91026.03;;;5.71;100.00
34506;BME280;20748;42.632;23.198;2023-04-03T14:03:16;91028.72;;;5.66;100.00
34506;BME280;20748;42.632;23.198;2023-04-03T14:05:52;91026.03;;;5.71;100.00
34506;BME280;20748;42.632;23.198;2023-04-03T14:08:25;91018.56;;;5.69;100.00
34506;BME280;20748;42.632;23.198;2023-04-03T14:11:15;91013.75;;;5.76;100.00